Time;durP1;ratioP1;P1;durP2;ratioP2;P2;SDS_P1;SDS_P2;PMS_P1;PMS_P2;Temp;Humidity;BMP_temperature;BMP_pressure;BME280_temperature;BME280_humidity;BME280_pressure;Samples;Min_cycle;Max_cycle;Signal;HPM_P1;HPM_P2
2022/01/02 00:00:10;;;;;;;16.07;10.00;;;;;;;;;;5093133;28;20576;-71
2022/01/02 00:02:36;;;;;;;15.50;10.07;;;;;;;;;;5091875;28;20440;-72
2022/01/02 00:05:10;;;;;;;14.80;10.73;;;;;;;;;;5091935;28;20400;-71
2022/01/02 00:07:41;;;;;;;15.00;10.40;;;;;;;;;;5093133;28;20491;-71
2022/01/02 00:10:08;;;;;;;18.67;10.77;;;;;;;;;;5093340;28;20428;-72
2022/01/02 00:12:34;;;;;;;17.70;11.67;;;;;;;;;;5092980;28;20564;-72
2022/01/02 00:15:03;;;;;;;14.97;9.97;;;;;;;;;;5093123;28;20429;-71
2022/01/02 00:17:30;;;;;;;16.43;10.30;;;;;;;;;;5093007;28;20466;-71
2022/01/02 00:19:58;;;;;;;14.03;8.20;;;;;;;;;;5091778;28;20562;-71
2022/01/02 00:22:32;;;;;;;13.10;9.00;;;;;;;;;;5093128;28;20408;-71
2022/01/02 00:24:59;;;;;;;12.30;9.50;;;;;;;;;;5091703;28;20765;-73
2022/01/02 00:27:25;;;;;;;14.60;10.10;;;;;;;;;;5092981;28;20408;-71
2022/01/02 00:29:51;;;;;;;13.50;8.87;;;;;;;;;;5092889;28;20914;-71
2022/01/02 00:32:18;;;;;;;11.20;8.67;;;;;;;;;;5093035;28;20769;-71
2022/01/02 00:34:44;;;;;;;13.20;9.00;;;;;;;;;;5092998;28;20963;-72
2022/01/02 00:37:10;;;;;;;17.97;10.43;;;;;;;;;;5092751;28;20467;-72
2022/01/02 00:39:37;;;;;;;13.80;9.60;;;;;;;;;;5092913;28;20404;-71
2022/01/02 00:42:09;;;;;;;16.07;10.57;;;;;;;;;;5092843;28;20457;-72
2022/01/02 00:44:38;;;;;;;15.07;9.77;;;;;;;;;;5091548;28;20767;-71
2022/01/02 00:47:11;;;;;;;13.67;9.90;;;;;;;;;;5092719;28;20424;-72
2022/01/02 00:49:40;;;;;;;19.03;10.13;;;;;;;;;;5092785;28;20418;-73
2022/01/02 00:52:10;;;;;;;16.60;10.40;;;;;;;;;;5091451;28;20879;-73
2022/01/02 00:54:37;;;;;;;15.30;9.67;;;;;;;;;;5092753;28;20388;-72
2022/01/02 00:57:05;;;;;;;14.23;10.10;;;;;;;;;;5092514;28;20479;-71
2022/01/02 00:59:38;;;;;;;14.07;8.10;;;;;;;;;;5092445;28;20873;-71
2022/01/02 01:02:04;;;;;;;10.23;7.20;;;;;;;;;;5092692;28;20414;-72
2022/01/02 01:04:32;;;;;;;9.10;6.63;;;;;;;;;;5092715;28;20947;-71
2022/01/02 01:07:02;;;;;;;12.87;9.17;;;;;;;;;;5092576;28;20474;-72
2022/01/02 01:09:29;;;;;;;14.83;9.30;;;;;;;;;;5094177;28;20392;-71
2022/01/02 01:11:56;;;;;;;13.67;9.10;;;;;;;;;;5096230;28;20392;-72
2022/01/02 01:14:22;;;;;;;13.23;9.00;;;;;;;;;;5096164;28;20403;-71
2022/01/02 01:16:49;;;;;;;15.80;9.63;;;;;;;;;;5094804;28;20532;-71
2022/01/02 01:19:15;;;;;;;15.70;9.73;;;;;;;;;;5096120;28;20406;-71
2022/01/02 01:21:41;;;;;;;15.20;10.10;;;;;;;;;;5096127;28;20482;-71
2022/01/02 01:24:07;;;;;;;12.80;8.80;;;;;;;;;;5095920;28;20457;-71
2022/01/02 01:26:33;;;;;;;12.60;8.27;;;;;;;;;;5095969;28;20755;-71
2022/01/02 01:28:59;;;;;;;12.83;8.80;;;;;;;;;;5095994;28;20387;-71
2022/01/02 01:31:25;;;;;;;15.97;8.47;;;;;;;;;;5095686;28;20487;-71
2022/01/02 01:33:51;;;;;;;12.50;7.33;;;;;;;;;;5095680;28;20430;-71
2022/01/02 01:36:17;;;;;;;9.43;7.10;;;;;;;;;;5095567;28;20516;-72
2022/01/02 01:38:43;;;;;;;9.00;6.17;;;;;;;;;;5095847;28;20397;-71
2022/01/02 01:41:20;;;;;;;12.63;8.73;;;;;;;;;;5095781;28;20880;-72
2022/01/02 01:44:05;;;;;;;14.47;8.37;;;;;;;;;;5094488;28;20419;-71
2022/01/02 01:46:31;;;;;;;12.90;9.63;;;;;;;;;;5095661;28;20748;-71
2022/01/02 01:48:57;;;;;;;10.50;8.20;;;;;;;;;;5095659;28;20411;-72
2022/01/02 01:51:24;;;;;;;12.10;8.67;;;;;;;;;;5095397;28;20902;-73
2022/01/02 01:53:50;;;;;;;11.10;7.53;;;;;;;;;;5095476;28;20744;-72
2022/01/02 01:56:17;;;;;;;9.23;6.77;;;;;;;;;;5095339;28;20450;-72
2022/01/02 01:58:43;;;;;;;10.00;6.83;;;;;;;;;;5093994;28;20463;-73
2022/01/02 02:01:09;;;;;;;12.53;8.10;;;;;;;;;;5095334;28;20842;-72
2022/01/02 02:03:35;;;;;;;13.10;8.47;;;;;;;;;;5095236;28;20480;-72
2022/01/02 02:06:01;;;;;;;13.73;9.87;;;;;;;;;;5095316;28;20431;-72
2022/01/02 02:08:27;;;;;;;14.00;9.40;;;;;;;;;;5095260;28;20499;-72
2022/01/02 02:10:57;;;;;;;13.53;9.27;;;;;;;;;;5095057;28;20422;-72
2022/01/02 02:13:24;;;;;;;9.37;7.33;;;;;;;;;;5095162;28;20420;-72
2022/01/02 02:15:51;;;;;;;10.97;7.83;;;;;;;;;;5094790;28;20411;-73
2022/01/02 02:18:17;;;;;;;8.80;6.30;;;;;;;;;;5094888;28;20830;-70
2022/01/02 02:20:44;;;;;;;8.37;6.63;;;;;;;;;;5094888;28;20404;-71
2022/01/02 02:23:12;;;;;;;10.77;7.67;;;;;;;;;;5093596;28;20428;-71
2022/01/02 02:25:38;;;;;;;9.80;7.70;;;;;;;;;;5094781;28;20408;-71
2022/01/02 02:28:07;;;;;;;15.20;8.00;;;;;;;;;;5094741;28;20411;-70
2022/01/02 02:30:34;;;;;;;10.53;7.50;;;;;;;;;;5094675;28;20396;-70
2022/01/02 02:33:01;;;;;;;10.20;7.47;;;;;;;;;;5094694;28;20424;-70
2022/01/02 02:35:28;;;;;;;12.23;8.10;;;;;;;;;;5094641;28;20971;-71
2022/01/02 02:37:54;;;;;;;9.47;7.00;;;;;;;;;;5093272;28;20481;-71
2022/01/02 02:40:22;;;;;;;8.10;5.90;;;;;;;;;;5094833;28;20739;-71
2022/01/02 02:43:03;;;;;;;9.03;6.60;;;;;;;;;;5094552;28;20412;-70
2022/01/02 02:50:58;;;;;;;10.20;5.10;;;;;;;;;;5094474;28;20403;-71
2022/01/02 02:53:24;;;;;;;5.63;4.93;;;;;;;;;;5093009;28;20442;-70
2022/01/02 02:55:55;;;;;;;7.37;5.10;;;;;;;;;;5094279;28;20438;-70
2022/01/02 03:01:00;;;;;;;6.10;5.07;;;;;;;;;;5094269;28;20485;-71
2022/01/02 03:03:26;;;;;;;6.17;4.60;;;;;;;;;;5094047;28;20435;-70
2022/01/02 03:05:52;;;;;;;5.30;3.93;;;;;;;;;;5092736;28;20918;-70
2022/01/02 03:08:19;;;;;;;6.17;4.97;;;;;;;;;;5094115;28;20404;-70
2022/01/02 03:10:45;;;;;;;5.73;4.43;;;;;;;;;;5093932;28;20806;-70
2022/01/02 03:13:11;;;;;;;6.90;4.50;;;;;;;;;;5094130;28;20407;-70
2022/01/02 03:15:37;;;;;;;5.33;4.80;;;;;;;;;;5093830;28;20528;-71
2022/01/02 03:18:03;;;;;;;6.20;4.67;;;;;;;;;;5092564;28;20484;-70
2022/01/02 03:20:29;;;;;;;4.97;4.47;;;;;;;;;;5093837;28;20465;-70
2022/01/02 03:22:55;;;;;;;4.50;4.00;;;;;;;;;;5092524;28;20440;-70
2022/01/02 03:25:21;;;;;;;9.10;5.00;;;;;;;;;;5093681;28;20403;-70
2022/01/02 03:27:47;;;;;;;8.27;4.50;;;;;;;;;;5093659;28;20771;-71
2022/01/02 03:30:14;;;;;;;5.60;3.93;;;;;;;;;;5093389;28;20490;-70
2022/01/02 03:32:40;;;;;;;6.13;4.03;;;;;;;;;;5093132;28;20490;-70
2022/01/02 03:35:06;;;;;;;4.73;4.33;;;;;;;;;;5093496;28;20404;-71
2022/01/02 03:37:33;;;;;;;5.37;3.93;;;;;;;;;;5093513;28;20463;-73
2022/01/02 03:40:00;;;;;;;5.50;4.70;;;;;;;;;;5092273;28;20806;-71
2022/01/02 03:42:26;;;;;;;7.40;4.00;;;;;;;;;;5093540;28;20403;-70
2022/01/02 03:44:52;;;;;;;5.90;4.67;;;;;;;;;;5093356;28;20416;-70
2022/01/02 03:47:18;;;;;;;7.53;4.53;;;;;;;;;;5093481;28;20404;-71
2022/01/02 03:49:45;;;;;;;7.33;3.77;;;;;;;;;;5092063;28;20476;-70
2022/01/02 03:52:11;;;;;;;5.53;4.67;;;;;;;;;;5093397;28;20419;-70
2022/01/02 03:54:37;;;;;;;4.80;3.93;;;;;;;;;;5093412;28;20396;-70
2022/01/02 03:57:03;;;;;;;5.90;4.00;;;;;;;;;;5093388;28;20813;-70
2022/01/02 03:59:29;;;;;;;5.10;4.03;;;;;;;;;;5093075;28;20463;-70
2022/01/02 04:01:55;;;;;;;6.10;3.93;;;;;;;;;;5093287;28;20408;-71
2022/01/02 04:04:21;;;;;;;5.60;4.80;;;;;;;;;;5093239;28;20914;-70
2022/01/02 04:06:47;;;;;;;7.53;4.47;;;;;;;;;;5093201;28;20404;-74
2022/01/02 04:09:13;;;;;;;5.30;4.80;;;;;;;;;;5093189;28;20407;-70
2022/01/02 04:11:39;;;;;;;5.03;4.03;;;;;;;;;;5093209;28;20909;-72
2022/01/02 04:14:06;;;;;;;5.77;4.60;;;;;;;;;;5093234;28;20468;-70
2022/01/02 04:16:32;;;;;;;6.30;4.47;;;;;;;;;;5093008;28;20467;-71
2022/01/02 04:18:58;;;;;;;5.70;4.37;;;;;;;;;;5093027;28;20908;-70
2022/01/02 04:21:24;;;;;;;4.90;4.13;;;;;;;;;;5093134;28;20400;-70
2022/01/02 04:23:50;;;;;;;7.13;4.40;;;;;;;;;;5093100;28;20399;-70
2022/01/02 04:26:16;;;;;;;4.70;4.00;;;;;;;;;;5092952;28;20870;-70
2022/01/02 04:28:42;;;;;;;5.60;4.00;;;;;;;;;;5092937;28;20399;-71
2022/01/02 04:31:09;;;;;;;4.27;3.70;;;;;;;;;;5093025;28;20404;-71
2022/01/02 04:33:36;;;;;;;6.50;5.33;;;;;;;;;;5093105;28;20428;-75
2022/01/02 04:36:02;;;;;;;7.60;5.67;;;;;;;;;;5092815;28;20407;-71
2022/01/02 04:38:28;;;;;;;6.97;5.63;;;;;;;;;;5092959;28;20427;-70
2022/01/02 04:40:54;;;;;;;7.10;5.73;;;;;;;;;;5092988;28;20791;-74
2022/01/02 04:43:20;;;;;;;8.10;5.63;;;;;;;;;;5091663;28;20419;-72
2022/01/02 04:45:46;;;;;;;8.03;6.17;;;;;;;;;;5096562;28;20403;-71
2022/01/02 04:48:12;;;;;;;9.40;5.87;;;;;;;;;;5096756;28;20403;-70
2022/01/02 04:50:38;;;;;;;9.57;6.03;;;;;;;;;;5096644;28;20418;-71
2022/01/02 04:53:04;;;;;;;11.40;7.60;;;;;;;;;;5095440;28;20412;-70
2022/01/02 04:55:30;;;;;;;11.67;8.00;;;;;;;;;;5096509;28;20395;-74
2022/01/02 04:57:56;;;;;;;11.30;7.77;;;;;;;;;;5096417;28;20475;-71
2022/01/02 05:00:22;;;;;;;11.40;7.10;;;;;;;;;;5096464;28;20482;-74
2022/01/02 05:02:52;;;;;;;9.87;6.77;;;;;;;;;;5096410;28;20420;-72
2022/01/02 05:05:19;;;;;;;8.57;6.30;;;;;;;;;;5096502;28;20464;-71
2022/01/02 05:07:45;;;;;;;7.30;6.03;;;;;;;;;;5096359;28;20403;-71
2022/01/02 05:10:11;;;;;;;7.40;5.97;;;;;;;;;;5096197;28;20400;-72
2022/01/02 05:12:37;;;;;;;7.87;5.70;;;;;;;;;;5096300;28;20764;-72
2022/01/02 05:15:04;;;;;;;8.50;5.83;;;;;;;;;;5096122;28;20399;-72
2022/01/02 05:17:30;;;;;;;7.10;5.60;;;;;;;;;;5096122;28;20467;-72
2022/01/02 05:19:56;;;;;;;7.37;5.40;;;;;;;;;;5096139;28;20882;-71
2022/01/02 05:22:22;;;;;;;8.40;6.13;;;;;;;;;;5096192;28;20457;-71
2022/01/02 05:24:48;;;;;;;8.17;6.07;;;;;;;;;;5096046;28;20416;-72
2022/01/02 05:27:14;;;;;;;10.33;7.30;;;;;;;;;;5094697;28;20431;-71
2022/01/02 05:29:40;;;;;;;12.23;7.30;;;;;;;;;;5095897;28;20494;-73
2022/01/02 05:32:06;;;;;;;9.57;6.90;;;;;;;;;;5094577;28;20467;-70
2022/01/02 05:34:32;;;;;;;9.73;7.50;;;;;;;;;;5095883;28;20412;-75
2022/01/02 05:36:58;;;;;;;7.80;6.70;;;;;;;;;;5095637;28;20551;-71
2022/01/02 05:39:25;;;;;;;15.10;8.23;;;;;;;;;;5095840;28;20507;-72
2022/01/02 05:41:51;;;;;;;12.37;7.70;;;;;;;;;;5095829;28;20487;-71
2022/01/02 05:44:18;;;;;;;14.50;7.43;;;;;;;;;;5095626;28;20400;-72
2022/01/02 05:46:44;;;;;;;11.60;8.80;;;;;;;;;;5094321;28;20767;-71
2022/01/02 05:49:11;;;;;;;11.23;7.93;;;;;;;;;;5094416;28;20408;-71
2022/01/02 05:51:37;;;;;;;11.77;7.90;;;;;;;;;;5095560;28;20415;-74
2022/01/02 05:54:03;;;;;;;8.20;6.00;;;;;;;;;;5095472;28;20403;-75
2022/01/02 05:56:29;;;;;;;7.57;5.43;;;;;;;;;;5094826;28;20488;-72
2022/01/02 05:58:55;;;;;;;6.50;4.70;;;;;;;;;;5095230;28;20464;-74
2022/01/02 06:01:21;;;;;;;6.77;4.83;;;;;;;;;;5095323;28;20399;-74
2022/01/02 06:03:47;;;;;;;4.20;3.80;;;;;;;;;;5095221;28;20481;-73
2022/01/02 06:06:13;;;;;;;5.63;4.40;;;;;;;;;;5095173;28;20400;-72
2022/01/02 06:08:39;;;;;;;4.70;4.00;;;;;;;;;;5093842;28;20842;-71
2022/01/02 06:11:05;;;;;;;6.17;4.43;;;;;;;;;;5095185;28;20400;-71
2022/01/02 06:13:31;;;;;;;5.47;4.37;;;;;;;;;;5095169;28;20539;-74
2022/01/02 06:15:58;;;;;;;4.97;4.40;;;;;;;;;;5095018;28;20519;-71
2022/01/02 06:18:24;;;;;;;4.87;4.10;;;;;;;;;;5094977;28;20467;-71
2022/01/02 06:20:50;;;;;;;7.10;4.47;;;;;;;;;;5093672;28;20416;-72
2022/01/02 06:23:16;;;;;;;5.60;4.83;;;;;;;;;;5094955;28;20511;-75
2022/01/02 06:25:43;;;;;;;7.40;5.67;;;;;;;;;;5093639;28;20473;-71
2022/01/02 06:28:09;;;;;;;7.00;4.80;;;;;;;;;;5094823;28;20412;-71
2022/01/02 06:30:35;;;;;;;7.17;5.50;;;;;;;;;;5094731;28;20419;-71
2022/01/02 06:33:01;;;;;;;5.50;4.50;;;;;;;;;;5093338;28;20939;-72
2022/01/02 06:35:34;;;;;;;7.30;5.20;;;;;;;;;;5094664;28;20409;-71
2022/01/02 06:38:00;;;;;;;5.13;4.63;;;;;;;;;;5094576;28;20462;-71
2022/01/02 06:40:26;;;;;;;7.57;5.77;;;;;;;;;;5094636;28;20542;-75
2022/01/02 06:42:53;;;;;;;8.33;6.10;;;;;;;;;;5094511;28;20440;-71
2022/01/02 06:45:19;;;;;;;10.43;7.43;;;;;;;;;;5094502;28;20890;-71
2022/01/02 06:47:45;;;;;;;9.20;7.20;;;;;;;;;;5094474;28;20413;-73
2022/01/02 06:50:12;;;;;;;6.77;6.07;;;;;;;;;;5094297;28;20437;-75
2022/01/02 06:52:38;;;;;;;11.57;7.87;;;;;;;;;;5094438;28;20419;-71
2022/01/02 06:55:04;;;;;;;9.60;7.23;;;;;;;;;;5094321;28;20886;-71
2022/01/02 06:57:30;;;;;;;8.87;6.93;;;;;;;;;;5093031;28;20463;-71
2022/01/02 06:59:56;;;;;;;7.10;6.40;;;;;;;;;;5092825;28;20509;-71
2022/01/02 07:02:22;;;;;;;8.90;6.63;;;;;;;;;;5092745;28;20998;-71
2022/01/02 07:04:49;;;;;;;9.77;6.67;;;;;;;;;;5094056;28;20895;-71
2022/01/02 07:07:14;;;;;;;12.80;8.10;;;;;;;;;;5093398;28;20412;-76
2022/01/02 07:09:40;;;;;;;10.00;7.40;;;;;;;;;;5093941;28;20801;-70
2022/01/02 07:12:07;;;;;;;9.23;6.93;;;;;;;;;;5093946;28;20478;-71
2022/01/02 07:14:33;;;;;;;13.10;7.23;;;;;;;;;;5093881;28;20588;-70
2022/01/02 07:16:59;;;;;;;9.07;7.43;;;;;;;;;;5093852;28;20496;-74
2022/01/02 07:19:25;;;;;;;12.10;7.17;;;;;;;;;;5093928;28;20440;-71
2022/01/02 07:21:51;;;;;;;9.70;6.57;;;;;;;;;;5093813;28;20400;-70
2022/01/02 07:24:18;;;;;;;11.40;7.23;;;;;;;;;;5093782;28;20432;-70
2022/01/02 07:26:44;;;;;;;8.87;6.60;;;;;;;;;;5093828;28;20403;-71
2022/01/02 07:29:10;;;;;;;9.87;6.87;;;;;;;;;;5093700;28;20407;-71
2022/01/02 07:31:36;;;;;;;10.87;7.00;;;;;;;;;;5093804;28;20489;-71
2022/01/02 07:34:02;;;;;;;8.10;6.53;;;;;;;;;;5093500;28;20473;-71
2022/01/02 07:36:28;;;;;;;11.70;6.73;;;;;;;;;;5093576;28;20448;-75
2022/01/02 07:38:55;;;;;;;8.87;6.57;;;;;;;;;;5093517;28;20416;-71
2022/01/02 07:41:21;;;;;;;9.10;6.40;;;;;;;;;;5093613;28;20903;-71
2022/01/02 07:43:47;;;;;;;9.83;7.63;;;;;;;;;;5093561;28;20411;-72
2022/01/02 07:46:13;;;;;;;8.07;7.17;;;;;;;;;;5093404;28;20404;-71
2022/01/02 07:48:39;;;;;;;8.57;6.23;;;;;;;;;;5093455;28;20408;-71
2022/01/02 07:51:05;;;;;;;9.33;6.93;;;;;;;;;;5093502;28;20402;-74
2022/01/02 07:53:31;;;;;;;9.20;7.00;;;;;;;;;;5093458;28;20498;-71
2022/01/02 07:55:58;;;;;;;9.67;7.40;;;;;;;;;;5093333;28;20403;-71
2022/01/02 07:58:24;;;;;;;11.07;6.90;;;;;;;;;;5092971;28;20490;-71
2022/01/02 08:00:50;;;;;;;9.50;6.77;;;;;;;;;;5092152;28;20785;-77
2022/01/02 08:03:17;;;;;;;10.07;6.53;;;;;;;;;;5093213;28;20523;-71
2022/01/02 08:05:43;;;;;;;10.73;6.77;;;;;;;;;;5093218;28;20416;-71
2022/01/02 08:08:09;;;;;;;8.10;6.70;;;;;;;;;;5093175;28;20404;-72
2022/01/02 08:10:37;;;;;;;9.77;7.10;;;;;;;;;;5093042;28;20891;-74
2022/01/02 08:13:04;;;;;;;8.63;6.70;;;;;;;;;;5093074;28;20410;-72
2022/01/02 08:15:32;;;;;;;7.97;6.50;;;;;;;;;;5093196;28;20465;-71
2022/01/02 08:17:58;;;;;;;7.70;6.90;;;;;;;;;;5093708;28;20467;-72
2022/01/02 08:20:24;;;;;;;9.67;7.17;;;;;;;;;;5097360;28;20410;-71
2022/01/02 08:22:50;;;;;;;10.50;7.50;;;;;;;;;;5097223;28;20414;-71
2022/01/02 08:25:16;;;;;;;9.00;6.63;;;;;;;;;;5097143;28;20396;-74
2022/01/02 08:27:42;;;;;;;8.17;6.30;;;;;;;;;;5097125;28;20398;-72
2022/01/02 08:30:09;;;;;;;8.40;7.37;;;;;;;;;;5095683;28;20464;-75
2022/01/02 08:32:36;;;;;;;8.20;6.70;;;;;;;;;;5096994;28;20503;-72
2022/01/02 08:35:02;;;;;;;8.80;6.40;;;;;;;;;;5095884;28;20396;-71
2022/01/02 08:37:28;;;;;;;10.17;7.00;;;;;;;;;;5095723;28;20539;-72
2022/01/02 08:39:54;;;;;;;8.83;6.20;;;;;;;;;;5096897;28;20753;-71
2022/01/02 08:42:20;;;;;;;8.30;6.50;;;;;;;;;;5096912;28;21029;-72
2022/01/02 08:44:47;;;;;;;8.50;6.90;;;;;;;;;;5096871;28;20403;-71
2022/01/02 08:47:13;;;;;;;8.40;6.73;;;;;;;;;;5096694;28;20426;-71
2022/01/02 08:49:39;;;;;;;10.17;6.20;;;;;;;;;;5096685;28;20407;-72
2022/01/02 08:52:05;;;;;;;8.43;6.20;;;;;;;;;;5095392;28;20978;-71
2022/01/02 08:54:31;;;;;;;8.10;6.60;;;;;;;;;;5096704;28;20460;-71
2022/01/02 08:56:57;;;;;;;7.93;6.40;;;;;;;;;;5096552;28;20467;-71
2022/01/02 08:59:27;;;;;;;7.13;6.40;;;;;;;;;;5096361;28;21001;-72
2022/01/02 09:01:53;;;;;;;10.57;6.47;;;;;;;;;;5096470;28;20404;-72
2022/01/02 09:04:19;;;;;;;6.77;5.83;;;;;;;;;;5096346;28;20799;-71
2022/01/02 09:06:45;;;;;;;9.37;6.93;;;;;;;;;;5096415;28;20411;-75
2022/01/02 09:09:11;;;;;;;9.80;6.73;;;;;;;;;;5096271;28;20400;-74
2022/01/02 09:11:37;;;;;;;10.83;6.87;;;;;;;;;;5094892;28;20408;-72
2022/01/02 09:14:04;;;;;;;8.10;6.43;;;;;;;;;;5096232;28;20408;-71
2022/01/02 09:16:30;;;;;;;9.90;6.83;;;;;;;;;;5096063;28;20406;-71
2022/01/02 09:18:56;;;;;;;8.47;6.03;;;;;;;;;;5096170;28;20536;-70
2022/01/02 09:21:22;;;;;;;10.47;7.20;;;;;;;;;;5094928;28;20415;-71
2022/01/02 09:23:48;;;;;;;9.00;6.53;;;;;;;;;;5096092;28;20415;-71
2022/01/02 09:26:14;;;;;;;8.17;6.80;;;;;;;;;;5096044;28;20400;-72
2022/01/02 09:28:40;;;;;;;8.10;7.03;;;;;;;;;;5095862;28;20416;-71
2022/01/02 09:31:06;;;;;;;8.20;6.37;;;;;;;;;;5093736;28;20515;-71
2022/01/02 09:33:33;;;;;;;7.90;6.30;;;;;;;;;;5095874;28;20503;-71
2022/01/02 09:35:59;;;;;;;7.13;6.40;;;;;;;;;;5095752;28;20400;-71
2022/01/02 09:38:25;;;;;;;6.53;5.87;;;;;;;;;;5095845;28;20561;-71
2022/01/02 09:40:52;;;;;;;8.03;6.57;;;;;;;;;;5095799;28;20465;-71
2022/01/02 09:43:18;;;;;;;7.47;5.70;;;;;;;;;;5095930;28;20453;-71
2022/01/02 09:45:48;;;;;;;7.67;6.47;;;;;;;;;;5095613;28;20407;-71
2022/01/02 09:48:14;;;;;;;8.90;6.53;;;;;;;;;;5094326;28;20819;-71
2022/01/02 09:50:41;;;;;;;6.97;6.27;;;;;;;;;;5095436;28;20412;-71
2022/01/02 09:53:07;;;;;;;8.63;6.53;;;;;;;;;;5095558;28;20431;-71
2022/01/02 09:55:34;;;;;;;9.43;6.30;;;;;;;;;;5094106;28;20778;-71
2022/01/02 09:58:03;;;;;;;7.47;6.37;;;;;;;;;;5095227;28;20554;-70
2022/01/02 10:00:29;;;;;;;8.43;6.63;;;;;;;;;;5094079;28;20818;-71
2022/01/02 10:03:05;;;;;;;9.10;7.23;;;;;;;;;;5095474;28;20528;-71
2022/01/02 10:05:50;;;;;;;9.20;6.70;;;;;;;;;;5095324;28;20430;-72
2022/01/02 10:08:24;;;;;;;9.03;6.50;;;;;;;;;;5095378;28;20396;-71
2022/01/02 10:10:58;;;;;;;7.60;6.80;;;;;;;;;;5095114;28;20469;-71
2022/01/02 10:13:37;;;;;;;7.43;6.30;;;;;;;;;;5095241;28;20826;-71
2022/01/02 10:16:03;;;;;;;8.57;6.60;;;;;;;;;;5095265;28;20400;-71
2022/01/02 10:18:29;;;;;;;60.27;17.93;;;;;;;;;;5094899;28;20981;-71
2022/01/02 10:20:59;;;;;;;36.93;17.47;;;;;;;;;;5094915;28;20416;-71
2022/01/02 10:23:25;;;;;;;16.43;8.43;;;;;;;;;;5094907;28;20422;-71
2022/01/02 10:25:52;;;;;;;9.70;7.33;;;;;;;;;;5094827;28;20899;-71
2022/01/02 10:28:18;;;;;;;9.90;7.30;;;;;;;;;;5094979;28;20411;-71
2022/01/02 10:30:51;;;;;;;8.57;6.60;;;;;;;;;;5094740;28;20404;-71
2022/01/02 10:33:17;;;;;;;8.97;7.03;;;;;;;;;;5094693;28;20444;-71
2022/01/02 10:35:43;;;;;;;8.93;6.60;;;;;;;;;;5094704;28;20436;-71
2022/01/02 10:38:17;;;;;;;8.10;7.30;;;;;;;;;;5094616;28;20467;-71
2022/01/02 10:40:43;;;;;;;8.13;6.67;;;;;;;;;;5094650;28;20411;-71
2022/01/02 10:43:11;;;;;;;10.17;7.50;;;;;;;;;;5094516;28;20431;-71
2022/01/02 10:45:38;;;;;;;7.63;6.23;;;;;;;;;;5094462;28;20956;-71
2022/01/02 10:48:06;;;;;;;8.80;6.40;;;;;;;;;;5094552;28;20400;-71
2022/01/02 10:50:32;;;;;;;10.33;7.77;;;;;;;;;;5094403;28;20895;-71
2022/01/02 10:53:10;;;;;;;9.20;6.73;;;;;;;;;;5094350;28;20415;-71
2022/01/02 10:55:37;;;;;;;7.83;6.70;;;;;;;;;;5093150;28;20437;-71
2022/01/02 10:58:07;;;;;;;9.20;6.97;;;;;;;;;;5094078;28;20467;-71
2022/01/02 11:00:33;;;;;;;9.17;7.63;;;;;;;;;;5094305;28;20817;-71
2022/01/02 11:02:59;;;;;;;9.37;7.13;;;;;;;;;;5094158;28;20455;-71
2022/01/02 11:05:28;;;;;;;8.87;7.00;;;;;;;;;;5094141;28;20404;-71
2022/01/02 11:07:58;;;;;;;6.60;5.20;;;;;;;;;;5092883;28;20450;-71
2022/01/02 11:10:24;;;;;;;7.10;5.80;;;;;;;;;;5094181;28;20436;-71
2022/01/02 11:12:51;;;;;;;8.10;5.87;;;;;;;;;;5094076;28;20941;-72
2022/01/02 11:15:18;;;;;;;4.87;4.40;;;;;;;;;;5093997;28;20495;-70
2022/01/02 11:17:45;;;;;;;5.47;4.97;;;;;;;;;;5093885;28;20914;-71
2022/01/02 11:20:12;;;;;;;4.37;3.20;;;;;;;;;;5093992;28;20411;-71
2022/01/02 11:22:47;;;;;;;5.17;3.70;;;;;;;;;;5093910;28;20400;-71
2022/01/02 11:25:18;;;;;;;4.33;3.07;;;;;;;;;;5092537;28;20423;-71
2022/01/02 11:27:47;;;;;;;3.90;3.37;;;;;;;;;;5093761;28;20483;-71
2022/01/02 11:30:34;;;;;;;5.60;3.80;;;;;;;;;;5092432;28;20440;-70
2022/01/02 11:33:01;;;;;;;7.30;3.20;;;;;;;;;;5093654;28;20467;-71
2022/01/02 11:35:27;;;;;;;3.70;3.00;;;;;;;;;;5093755;28;20412;-71
2022/01/02 11:37:56;;;;;;;5.23;3.20;;;;;;;;;;5093660;28;20960;-71
2022/01/02 11:40:42;;;;;;;5.33;3.13;;;;;;;;;;5093750;28;20486;-71
2022/01/02 11:43:08;;;;;;;8.10;5.10;;;;;;;;;;5093622;28;20407;-71
2022/01/02 11:45:41;;;;;;;6.90;3.90;;;;;;;;;;5093476;28;20475;-71
2022/01/02 11:48:26;;;;;;;7.63;4.40;;;;;;;;;;5093587;28;20399;-71
2022/01/02 11:50:52;;;;;;;3.47;3.10;;;;;;;;;;5092266;28;20411;-71
2022/01/02 11:53:23;;;;;;;2.27;2.03;;;;;;;;;;5092997;28;20879;-71
2022/01/02 11:55:53;;;;;;;1.93;1.67;;;;;;;;;;5092123;28;20906;-71
2022/01/02 11:58:37;;;;;;;1.97;1.73;;;;;;;;;;5091820;28;20533;-71
2022/01/02 12:01:03;;;;;;;2.43;1.70;;;;;;;;;;5093416;28;20388;-70
2022/01/02 12:03:39;;;;;;;2.00;1.80;;;;;;;;;;5091838;28;20439;-70
2022/01/02 12:06:15;;;;;;;1.70;1.50;;;;;;;;;;5093440;28;20461;-72
2022/01/02 12:08:41;;;;;;;2.23;1.70;;;;;;;;;;5093258;28;20414;-71
2022/01/02 12:11:26;;;;;;;3.00;1.83;;;;;;;;;;5092067;28;20460;-71
2022/01/02 12:14:11;;;;;;;3.33;1.43;;;;;;;;;;5093218;28;20488;-72
2022/01/02 12:16:39;;;;;;;1.70;1.60;;;;;;;;;;5093197;28;20402;-72
2022/01/02 12:19:05;;;;;;;3.20;1.77;;;;;;;;;;5093169;28;20473;-70
2022/01/02 12:21:32;;;;;;;2.10;1.80;;;;;;;;;;5093038;28;20408;-72
2022/01/02 12:23:59;;;;;;;2.10;1.40;;;;;;;;;;5091899;28;20823;-71
2022/01/02 12:26:29;;;;;;;1.73;1.63;;;;;;;;;;5093191;28;20871;-72
2022/01/02 12:29:05;;;;;;;2.83;1.90;;;;;;;;;;5092981;28;20415;-71
2022/01/02 12:31:41;;;;;;;2.00;1.70;;;;;;;;;;5093118;28;20395;-71
2022/01/02 12:34:12;;;;;;;2.33;1.40;;;;;;;;;;5092778;28;20427;-74
2022/01/02 12:36:41;;;;;;;2.00;1.60;;;;;;;;;;5091704;28;20961;-71
2022/01/02 12:39:08;;;;;;;3.80;1.80;;;;;;;;;;5093008;28;20503;-72
2022/01/02 12:41:35;;;;;;;1.97;1.87;;;;;;;;;;5091707;28;20438;-71
2022/01/02 12:44:13;;;;;;;1.73;1.60;;;;;;;;;;5092930;28;20412;-71
2022/01/02 12:46:40;;;;;;;1.93;1.70;;;;;;;;;;5092908;28;20498;-72
2022/01/02 12:49:16;;;;;;;1.90;1.50;;;;;;;;;;5092744;28;20407;-71
2022/01/02 12:51:43;;;;;;;2.63;1.93;;;;;;;;;;5091569;28;20476;-71
2022/01/02 12:54:10;;;;;;;1.93;1.60;;;;;;;;;;5092760;28;20418;-71
2022/01/02 12:56:37;;;;;;;2.60;2.00;;;;;;;;;;5092772;28;20407;-71
2022/01/02 12:59:22;;;;;;;2.40;1.87;;;;;;;;;;5092600;28;20459;-71
2022/01/02 13:01:51;;;;;;;2.60;1.60;;;;;;;;;;5092702;28;20548;-71
2022/01/02 13:04:17;;;;;;;2.60;1.80;;;;;;;;;;5092658;28;20438;-71
2022/01/02 13:06:53;;;;;;;2.90;2.00;;;;;;;;;;5096103;28;20402;-71
2022/01/02 13:09:46;;;;;;;1.80;1.70;;;;;;;;;;5096372;28;20399;-71
2022/01/02 13:12:16;;;;;;;2.80;1.57;;;;;;;;;;5092978;28;20518;-71
2022/01/02 13:14:45;;;;;;;1.87;1.77;;;;;;;;;;5094995;28;20754;-71
2022/01/02 13:17:13;;;;;;;1.80;1.60;;;;;;;;;;5096271;28;20910;-71
2022/01/02 13:19:41;;;;;;;1.83;1.63;;;;;;;;;;5094999;28;20534;-73
2022/01/02 13:22:08;;;;;;;2.83;1.90;;;;;;;;;;5096199;28;20414;-72
2022/01/02 13:24:35;;;;;;;2.80;2.10;;;;;;;;;;5094956;28;20548;-71
2022/01/02 13:27:04;;;;;;;3.10;2.03;;;;;;;;;;5096203;28;20512;-72
2022/01/02 13:29:30;;;;;;;2.13;2.03;;;;;;;;;;5096056;28;20408;-72
2022/01/02 13:31:58;;;;;;;1.67;1.57;;;;;;;;;;5095885;28;20423;-72
2022/01/02 13:34:25;;;;;;;3.30;2.33;;;;;;;;;;5094732;28;20468;-71
2022/01/02 13:37:00;;;;;;;1.90;1.80;;;;;;;;;;5095988;28;20950;-72
2022/01/02 13:39:45;;;;;;;2.50;2.30;;;;;;;;;;5095960;28;20902;-72
2022/01/02 13:42:12;;;;;;;1.83;1.73;;;;;;;;;;5095860;28;20392;-72
2022/01/02 13:44:39;;;;;;;2.80;1.93;;;;;;;;;;5095773;28;20411;-72
2022/01/02 13:47:05;;;;;;;2.03;1.70;;;;;;;;;;5095667;28;20753;-70
2022/01/02 13:49:40;;;;;;;2.80;2.37;;;;;;;;;;5095698;28;20439;-72
2022/01/02 13:52:06;;;;;;;2.27;1.73;;;;;;;;;;5095617;28;20411;-70
2022/01/02 13:54:33;;;;;;;4.40;1.80;;;;;;;;;;5094188;28;20849;-70
2022/01/02 13:56:59;;;;;;;2.17;1.90;;;;;;;;;;5094261;28;20953;-71
2022/01/02 13:59:26;;;;;;;2.50;2.30;;;;;;;;;;5093967;28;20471;-71
2022/01/02 14:01:52;;;;;;;3.20;2.10;;;;;;;;;;5095385;28;20469;-71
2022/01/02 14:04:19;;;;;;;2.07;1.90;;;;;;;;;;5093922;28;20472;-70
2022/01/02 14:06:46;;;;;;;3.17;1.90;;;;;;;;;;5094117;28;20838;-73
2022/01/02 14:09:19;;;;;;;2.50;2.17;;;;;;;;;;5095262;28;20495;-70
2022/01/02 14:11:47;;;;;;;2.37;1.90;;;;;;;;;;5093927;28;20770;-71
2022/01/02 14:14:22;;;;;;;3.53;1.80;;;;;;;;;;5095203;28;20424;-70
2022/01/02 14:19:32;;;;;;;3.27;2.50;;;;;;;;;;5095274;28;20723;-70
2022/01/02 14:22:00;;;;;;;2.50;2.30;;;;;;;;;;5095125;28;20758;-70
2022/01/02 14:24:26;;;;;;;3.87;2.10;;;;;;;;;;5094897;28;20756;-71
2022/01/02 14:26:52;;;;;;;2.90;1.90;;;;;;;;;;5094951;28;20472;-71
2022/01/02 14:29:19;;;;;;;2.10;1.80;;;;;;;;;;5094740;28;20457;-70
2022/01/02 14:31:45;;;;;;;3.47;1.93;;;;;;;;;;5093448;28;20933;-70
2022/01/02 14:34:11;;;;;;;3.50;2.40;;;;;;;;;;5094621;28;20399;-71
2022/01/02 14:36:37;;;;;;;3.83;2.20;;;;;;;;;;5093417;28;20400;-71
2022/01/02 14:39:08;;;;;;;3.30;2.50;;;;;;;;;;5094576;28;20404;-71
2022/01/02 14:41:36;;;;;;;3.10;2.43;;;;;;;;;;5093387;28;20469;-72
2022/01/02 14:44:03;;;;;;;7.03;1.80;;;;;;;;;;5094646;28;20984;-72
2022/01/02 14:46:29;;;;;;;2.60;1.83;;;;;;;;;;5094659;28;20403;-71
2022/01/02 14:48:55;;;;;;;3.30;2.20;;;;;;;;;;5092984;28;20434;-72
2022/01/02 14:51:21;;;;;;;5.37;2.50;;;;;;;;;;5093305;28;20419;-71